Time;durP1;ratioP1;P1;durP2;ratioP2;P2;SDS_P1;SDS_P2;PMS_P1;PMS_P2;Temp;Humidity;BMP_temperature;BMP_pressure;BME280_temperature;BME280_humidity;BME280_pressure;Samples;Min_cycle;Max_cycle;Signal;HPM_P1;HPM_P2
2023/10/17 00:00:51;;;;;;;9.32;4.63;;;9.60;99.90;;;;;;5054333;28;20060;-91
2023/10/17 00:03:17;;;;;;;10.48;3.63;;;9.60;99.90;;;;;;5054465;28;20083;-92
2023/10/17 00:05:42;;;;;;;6.32;3.78;;;10.50;99.90;;;;;;5054132;28;20087;-91
2023/10/17 00:08:09;;;;;;;9.65;3.72;;;9.60;99.90;;;;;;5054353;28;20456;-92
2023/10/17 00:10:44;;;;;;;7.72;4.30;;;9.60;99.90;;;;;;5057962;28;20021;-92
2023/10/17 00:15:54;;;;;;;7.97;4.43;;;9.60;99.90;;;;;;5057891;28;20036;-92
2023/10/17 00:18:25;;;;;;;8.95;4.32;;;10.00;99.90;;;;;;5061417;28;20441;-93
2023/10/17 00:20:52;;;;;;;7.72;3.75;;;9.50;99.90;;;;;;5054827;28;20040;-92
2023/10/17 00:23:20;;;;;;;4.50;3.53;;;9.60;99.90;;;;;;5054544;28;20033;-91
2023/10/17 00:25:49;;;;;;;6.65;3.63;;;9.60;99.90;;;;;;5053947;28;20028;-91
2023/10/17 00:28:15;;;;;;;8.90;3.55;;;9.90;99.90;;;;;;5054040;28;20536;-91
2023/10/17 00:30:41;;;;;;;11.18;4.35;;;10.00;99.90;;;;;;5057994;28;20461;-91
2023/10/17 00:33:11;;;;;;;9.68;3.90;;;9.50;99.90;;;;;;5058323;28;20033;-92
2023/10/17 00:35:40;;;;;;;8.50;3.65;;;9.50;99.90;;;;;;5058379;28;20032;-92
2023/10/17 00:38:08;;;;;;;10.55;4.38;;;9.50;99.90;;;;;;5058101;28;20025;-91
2023/10/17 00:40:45;;;;;;;9.65;3.63;;;9.60;99.90;;;;;;5058273;28;20033;-93
2023/10/17 00:43:14;;;;;;;5.10;3.75;;;9.60;99.90;;;;;;5057606;28;20021;-91
2023/10/17 00:45:41;;;;;;;3.70;3.25;;;9.60;99.90;;;;;;5058170;28;20052;-91
2023/10/17 00:48:17;;;;;;;5.90;3.85;;;9.90;99.90;;;;;;5057628;28;20029;-92
2023/10/17 00:50:48;;;;;;;12.43;4.68;;;9.70;99.90;;;;;;5057790;28;20095;-91
2023/10/17 00:53:14;;;;;;;10.88;4.22;;;9.80;99.90;;;;;;5057299;28;20494;-92
2023/10/17 00:55:50;;;;;;;6.88;3.15;;;9.70;99.90;;;;;;5057744;28;20028;-93
2023/10/17 00:58:18;;;;;;;7.82;3.80;;;9.70;99.90;;;;;;5059885;28;20079;-93
2023/10/17 01:00:49;;;;;;;6.07;3.28;;;9.80;99.90;;;;;;5060331;28;20022;-90
2023/10/17 01:03:16;;;;;;;5.97;3.60;;;9.80;99.90;;;;;;5058605;28;20033;-95
2023/10/17 01:06:13;;;;;;;6.30;3.53;;;9.80;99.90;;;;;;5059365;28;20029;-93
2023/10/17 01:08:40;;;;;;;7.55;3.85;;;9.80;99.90;;;;;;5059190;28;20400;-93
2023/10/17 01:11:11;;;;;;;5.40;3.53;;;9.80;99.90;;;;;;5059184;28;20028;-92
2023/10/17 01:13:37;;;;;;;7.72;3.10;;;9.80;99.90;;;;;;5057392;28;20373;-94
2023/10/17 01:16:07;;;;;;;3.45;3.15;;;9.80;99.90;;;;;;5067037;28;20024;-92
2023/10/17 01:18:37;;;;;;;5.60;3.35;;;9.80;99.90;;;;;;5065164;28;20029;-93
2023/10/17 01:21:04;;;;;;;5.40;3.30;;;9.80;99.90;;;;;;5059043;28;20029;-93
2023/10/17 01:23:31;;;;;;;4.05;3.22;;;9.90;99.90;;;;;;5057873;28;20029;-93
2023/10/17 01:26:01;;;;;;;6.15;3.25;;;9.90;99.90;;;;;;5058460;28;20374;-93
2023/10/17 01:28:28;;;;;;;6.07;3.20;;;10.00;99.90;;;;;;5048049;28;20057;-93
2023/10/17 01:30:57;;;;;;;7.70;3.38;;;11.30;99.90;;;;;;5061702;28;20029;-92
2023/10/17 01:33:29;;;;;;;5.60;3.38;;;9.90;99.90;;;;;;5060608;28;20092;-92
2023/10/17 01:35:57;;;;;;;5.15;2.80;;;11.00;99.90;;;;;;5062476;28;20481;-93
2023/10/17 01:38:26;;;;;;;6.43;3.03;;;9.90;99.90;;;;;;5063316;28;20033;-92
2023/10/17 01:40:53;;;;;;;7.93;2.95;;;10.10;99.90;;;;;;5056544;28;20072;-93
2023/10/17 01:43:22;;;;;;;4.03;3.05;;;9.80;99.90;;;;;;5061683;28;20045;-93
2023/10/17 01:45:50;;;;;;;6.63;3.90;;;10.70;99.90;;;;;;5058881;28;20075;-93
2023/10/17 01:48:16;;;;;;;4.72;3.28;;;10.50;99.90;;;;;;5064638;28;20063;-92
2023/10/17 01:50:44;;;;;;;6.72;3.22;;;10.90;99.90;;;;;;5066202;28;20021;-93
2023/10/17 01:53:13;;;;;;;2.75;2.40;;;10.20;99.90;;;;;;5065445;28;20084;-93
2023/10/17 01:55:39;;;;;;;5.40;2.55;;;10.80;99.90;;;;;;5058424;28;20074;-92
2023/10/17 01:58:07;;;;;;;9.13;3.25;;;11.10;99.90;;;;;;5058090;28;20385;-93
2023/10/17 02:00:39;;;;;;;8.63;3.97;;;10.90;99.90;;;;;;5060600;28;20025;-91
2023/10/17 02:03:05;;;;;;;9.38;2.90;;;9.80;99.90;;;;;;5059366;28;20163;-93
2023/10/17 02:05:33;;;;;;;5.75;2.78;;;11.10;99.90;;;;;;5058331;28;20151;-92
2023/10/17 02:07:59;;;;;;;4.82;2.92;;;9.80;99.90;;;;;;5064797;22;20037;-93
2023/10/17 02:10:25;;;;;;;4.30;3.00;;;11.00;99.90;;;;;;5058024;28;20056;-93
2023/10/17 02:12:54;;;;;;;10.95;3.00;;;10.70;99.90;;;;;;5058436;28;20051;-92
2023/10/17 02:15:20;;;;;;;6.03;3.38;;;10.90;99.90;;;;;;5065688;28;20104;-93
2023/10/17 02:17:48;;;;;;;9.48;2.95;;;9.50;99.90;;;;;;5068719;28;20033;-94
2023/10/17 02:20:21;;;;;;;5.65;3.13;;;9.70;99.90;;;;;;5058854;28;20105;-94
2023/10/17 02:22:49;;;;;;;4.85;2.35;;;9.70;99.90;;;;;;5057877;28;20029;-91
2023/10/17 02:25:16;;;;;;;9.63;3.10;;;10.80;99.90;;;;;;5057433;28;20085;-92
2023/10/17 02:27:43;;;;;;;9.80;2.53;;;10.70;99.90;;;;;;5056229;28;20033;-93
2023/10/17 02:30:14;;;;;;;4.43;2.78;;;9.70;99.90;;;;;;5056219;28;20500;-93
2023/10/17 02:32:52;;;;;;;3.50;2.10;;;9.70;99.90;;;;;;5064193;28;20032;-94
2023/10/17 02:35:29;;;;;;;4.30;2.65;;;10.10;99.90;;;;;;5065861;28;20033;-93
2023/10/17 02:38:04;;;;;;;5.82;2.30;;;8.60;99.90;;;;;;5066464;28;20020;-93
2023/10/17 02:40:34;;;;;;;4.32;2.30;;;9.70;99.90;;;;;;5064202;28;20021;-93
2023/10/17 02:43:01;;;;;;;6.22;2.03;;;10.60;99.90;;;;;;5055541;28;20171;-92
2023/10/17 02:45:26;;;;;;;6.50;2.38;;;10.60;99.90;;;;;;5056246;28;20025;-93
2023/10/17 02:47:57;;;;;;;6.05;2.63;;;10.60;99.90;;;;;;5064081;28;20100;-92
2023/10/17 02:52:58;;;;;;;5.05;2.55;;;10.70;99.90;;;;;;5078548;28;20029;-94
2023/10/17 02:55:23;;;;;;;5.00;2.40;;;9.60;99.90;;;;;;5064422;28;20499;-94
2023/10/17 02:57:53;;;;;;;4.88;2.55;;;10.40;99.90;;;;;;5058731;28;20025;-93
2023/10/17 03:00:23;;;;;;;8.15;2.28;;;10.10;99.90;;;;;;5056617;28;20104;-93
2023/10/17 03:02:56;;;;;;;6.30;2.20;;;9.80;99.90;;;;;;5055537;28;20024;-93
2023/10/17 03:05:25;;;;;;;5.78;2.53;;;10.30;99.90;;;;;;5060451;28;20013;-92
2023/10/17 03:07:51;;;;;;;3.90;2.25;;;10.50;99.90;;;;;;5058113;28;20071;-92
2023/10/17 03:10:40;;;;;;;10.32;2.50;;;10.60;99.90;;;;;;5064414;28;20037;-92
2023/10/17 03:13:18;;;;;;;4.55;2.10;;;10.60;99.90;;;;;;5063712;28;20013;-92
2023/10/17 03:15:46;;;;;;;5.75;2.20;;;11.10;99.90;;;;;;5071152;28;20045;-92
2023/10/17 03:18:16;;;;;;;4.35;1.92;;;9.80;99.90;;;;;;5058906;28;20032;-94
2023/10/17 03:20:50;;;;;;;;;;;10.50;99.90;;;;;;5058464;28;20032;-94
2023/10/17 03:23:19;;;;;;;6.57;2.63;;;10.80;99.90;;;;;;5036682;28;19912;-93
2023/10/17 03:25:46;;;;;;;7.07;1.98;;;9.70;99.90;;;;;;5035819;28;20031;-94
2023/10/17 03:28:13;;;;;;;6.47;2.17;;;9.90;99.90;;;;;;5056257;28;20029;-95
2023/10/17 03:30:39;;;;;;;2.78;1.73;;;10.20;99.90;;;;;;5055105;28;20025;-93
2023/10/17 03:33:08;;;;;;;3.85;1.80;;;10.60;99.90;;;;;;5055514;28;20108;-94
2023/10/17 03:36:04;;;;;;;5.70;2.30;;;10.30;99.90;;;;;;5054786;28;20024;-93
2023/10/17 03:38:31;;;;;;;6.97;2.00;;;10.70;99.90;;;;;;5055158;28;20103;-92
2023/10/17 03:41:15;;;;;;;4.57;1.85;;;10.80;99.90;;;;;;5054845;28;20086;-94
2023/10/17 03:43:52;;;;;;;6.20;2.45;;;9.70;99.90;;;;;;5053715;28;20099;-92
2023/10/17 03:46:18;;;;;;;3.83;1.67;;;9.70;99.90;;;;;;5054735;28;20074;-92
2023/10/17 03:48:57;;;;;;;3.95;2.35;;;11.00;99.90;;;;;;5054468;28;20087;-92
2023/10/17 03:51:31;;;;;;;4.82;2.08;;;10.30;99.90;;;;;;5071583;28;20009;-93
2023/10/17 03:54:06;;;;;;;6.47;2.50;;;10.70;99.90;;;;;;5076510;28;20013;-92
2023/10/17 03:56:41;;;;;;;5.28;2.05;;;10.70;99.90;;;;;;5066296;28;20048;-92
2023/10/17 03:59:27;;;;;;;3.70;2.35;;;11.10;99.90;;;;;;5058767;28;20037;-92
2023/10/17 04:01:52;;;;;;;5.65;2.03;;;10.70;99.90;;;;;;5056466;28;20029;-92
2023/10/17 04:04:30;;;;;;;3.88;2.40;;;10.00;99.90;;;;;;5054556;28;20021;-92
2023/10/17 04:06:57;;;;;;;4.22;2.85;;;10.60;99.90;;;;;;5056184;28;20028;-92
2023/10/17 04:11:49;;;;;;;3.67;1.95;;;10.40;99.90;;;;;;5054580;28;20037;-93
2023/10/17 04:14:17;;;;;;;5.30;2.25;;;8.80;99.90;;;;;;5065562;28;20035;-94
2023/10/17 04:16:46;;;;;;;7.55;3.08;;;9.50;99.90;;;;;;5064020;28;20021;-94
2023/10/17 04:19:18;;;;;;;8.50;2.85;;;9.60;99.90;;;;;;5056338;28;20032;-93
2023/10/17 04:22:02;;;;;;;4.38;2.83;;;9.90;99.90;;;;;;5055144;28;20035;-94
2023/10/17 04:24:38;;;;;;;5.97;2.63;;;10.10;99.90;;;;;;5054885;28;20029;-93
2023/10/17 04:29:50;;;;;;;4.55;2.95;;;9.40;99.90;;;;;;5035063;28;20018;-92
2023/10/17 04:32:29;;;;;;;7.72;3.20;;;9.40;99.90;;;;;;5039805;28;20029;-92
2023/10/17 04:34:55;;;;;;;7.75;3.53;;;10.50;99.90;;;;;;5054287;28;20545;-92
2023/10/17 04:37:24;;;;;;;5.25;3.13;;;10.70;99.90;;;;;;5054470;28;20029;-93
2023/10/17 04:45:33;;;;;;;6.15;3.38;;;9.30;99.90;;;;;;5056064;28;20017;-93
2023/10/17 04:48:11;;;;;;;5.15;3.35;;;10.50;99.90;;;;;;5068438;28;20087;-93
2023/10/17 04:51:11;;;;;;;9.60;3.85;;;10.50;99.90;;;;;;5059014;28;20040;-93
2023/10/17 04:53:38;;;;;;;6.80;4.07;;;10.40;99.90;;;;;;5054293;28;20064;-92
2023/10/17 04:56:16;;;;;;;4.97;3.83;;;10.40;99.90;;;;;;5055563;28;20488;-92
2023/10/17 04:59:03;;;;;;;8.63;3.97;;;9.30;99.90;;;;;;5055855;28;20036;-94
2023/10/17 05:01:53;;;;;;;9.77;3.78;;;9.90;99.90;;;;;;5055856;28;20048;-92
2023/10/17 05:04:33;;;;;;;;;;;9.40;99.90;;;;;;5057089;28;20086;-94
2023/10/17 06:16:51;;;;;;;8.38;4.35;;;9.90;99.90;;;;;;5057863;28;20068;-93
2023/10/17 06:17:59;;;;;;;2.70;2.40;;;9.40;99.90;;;;;;5070215;28;20047;-89
2023/10/17 06:21:06;;;;;;;7.30;3.60;;;9.40;99.90;;;;;;5065457;28;20033;-92
2023/10/17 06:24:05;;;;;;;9.82;3.72;;;9.40;99.90;;;;;;5060917;28;20504;-92
2023/10/17 06:30:05;;;;;;;6.97;3.00;;;9.30;99.90;;;;;;5037222;28;20083;-92
2023/10/17 06:34:15;;;;;;;6.15;3.70;;;9.30;99.90;;;;;;5057113;28;20036;-91
2023/10/17 06:36:42;;;;;;;3.00;2.65;;;9.30;99.90;;;;;;5063635;28;20021;-92
2023/10/17 06:39:16;;;;;;;6.40;2.83;;;9.20;99.90;;;;;;5066724;28;20089;-92
2023/10/17 06:41:44;;;;;;;7.03;3.28;;;9.20;99.90;;;;;;5038996;28;20029;-93
2023/10/17 06:44:10;;;;;;;3.75;3.08;;;9.20;99.90;;;;;;5055562;28;20063;-91
2023/10/17 06:46:48;;;;;;;4.22;2.47;;;9.10;99.90;;;;;;5056215;28;20025;-92
2023/10/17 06:52:54;;;;;;;3.25;2.47;;;9.10;99.90;;;;;;5053804;28;20044;-91
2023/10/17 06:54:49;;;;;;;6.85;2.90;;;9.10;99.90;;;;;;5040993;28;20489;-93
2023/10/17 06:57:24;;;;;;;4.25;3.03;;;9.10;99.90;;;;;;5055094;28;20115;-89
2023/10/17 06:59:51;;;;;;;4.07;2.95;;;9.10;99.90;;;;;;5054357;28;20155;-89
2023/10/17 07:02:41;;;;;;;6.15;3.45;;;9.20;99.90;;;;;;5055652;28;20028;-92
2023/10/17 07:05:08;;;;;;;4.18;2.88;;;9.10;99.90;;;;;;5036484;28;20037;-94
2023/10/17 07:07:42;;;;;;;6.10;3.53;;;9.20;99.90;;;;;;5059392;28;20049;-92
2023/10/17 07:10:24;;;;;;;6.90;3.28;;;9.10;99.90;;;;;;5060924;28;20029;-93
2023/10/17 07:13:27;;;;;;;10.45;4.45;;;9.10;99.90;;;;;;5063937;28;20021;-92
2023/10/17 07:15:54;;;;;;;9.25;3.75;;;9.10;99.90;;;;;;5063686;28;20029;-92
2023/10/17 07:23:42;;;;;;;8.90;4.65;;;9.10;99.90;;;;;;5055541;28;20080;-92
2023/10/17 07:26:15;;;;;;;9.27;4.00;;;9.20;99.90;;;;;;5057183;28;20036;-92
2023/10/17 07:28:44;;;;;;;8.68;4.93;;;9.20;99.90;;;;;;5056159;28;20045;-90
2023/10/17 07:31:13;;;;;;;5.93;4.47;;;9.20;99.90;;;;;;5059198;28;20028;-92
2023/10/17 07:42:45;;;;;;;12.20;6.75;;;10.20;99.90;;;;;;5055031;28;20102;-92
2023/10/17 07:45:21;;;;;;;8.85;6.10;;;10.30;99.90;;;;;;5055571;28;20025;-93
2023/10/17 07:50:57;;;;;;;9.45;6.82;;;9.50;99.90;;;;;;5054017;28;20032;-90
2023/10/17 07:53:45;;;;;;;10.18;7.20;;;9.80;99.90;;;;;;5045901;28;20025;-89
2023/10/17 07:56:20;;;;;;;14.88;7.88;;;10.80;99.90;;;;;;5053002;28;20112;-85
2023/10/17 07:58:46;;;;;;;10.25;7.95;;;9.60;99.90;;;;;;5051725;28;20029;-84
2023/10/17 08:01:15;;;;;;;10.07;8.25;;;9.70;99.90;;;;;;5050771;28;20079;-89
2023/10/17 08:03:49;;;;;;;12.10;8.97;;;9.70;99.90;;;;;;5055085;28;20032;-93
2023/10/17 08:06:20;;;;;;;11.95;9.18;;;10.40;99.90;;;;;;5055085;28;20444;-91
2023/10/17 08:08:46;;;;;;;22.90;10.30;;;10.90;99.90;;;;;;5053307;28;20044;-90
2023/10/17 08:11:30;;;;;;;19.50;10.32;;;9.80;99.90;;;;;;5054212;28;20116;-90
2023/10/17 08:14:03;;;;;;;22.38;11.95;;;9.80;99.90;;;;;;5055480;28;20079;-90
2023/10/17 08:16:32;;;;;;;14.43;11.00;;;9.80;99.90;;;;;;5056626;28;20021;-92
2023/10/17 08:19:21;;;;;;;14.88;10.45;;;10.90;99.90;;;;;;5054481;28;20029;-90
2023/10/17 08:24:40;;;;;;;16.60;11.15;;;9.80;99.90;;;;;;5035619;28;20388;-86
2023/10/17 08:35:04;;;;;;;12.98;10.88;;;9.90;99.90;;;;;;5053510;28;20033;-90
2023/10/17 08:37:30;;;;;;;25.17;13.55;;;9.90;99.90;;;;;;5054065;28;20025;-90
2023/10/17 08:39:57;;;;;;;19.10;12.55;;;10.00;99.90;;;;;;5058993;28;20029;-95
2023/10/17 08:42:37;;;;;;;20.42;12.88;;;10.00;99.90;;;;;;5061021;28;20108;-94
2023/10/17 08:45:15;;;;;;;22.50;13.00;;;10.00;99.90;;;;;;5059530;28;20083;-94
2023/10/17 08:47:54;;;;;;;;;;;;;;;;;;;;;
2023/10/17 08:50:46;;;;;;;19.38;12.35;;;10.50;99.90;;;;;;5041082;28;20556;-93
2023/10/17 08:53:23;;;;;;;19.65;13.02;;;10.80;99.90;;;;;;5065444;28;20028;-93
2023/10/17 08:55:50;;;;;;;15.10;12.30;;;10.40;99.90;;;;;;5066016;28;20025;-93
2023/10/17 08:58:33;;;;;;;19.95;12.27;;;10.10;99.90;;;;;;5064240;28;20116;-95
2023/10/17 09:04:03;;;;;;;18.48;11.77;;;10.20;99.90;;;;;;5061787;28;20109;-94
2023/10/17 09:06:37;;;;;;;13.90;11.48;;;11.30;99.90;;;;;;5064863;28;20033;-94
2023/10/17 09:09:38;;;;;;;17.77;10.77;;;9.70;99.90;;;;;;5062775;28;20037;-94
2023/10/17 09:15:47;;;;;;;23.48;10.90;;;10.40;99.90;;;;;;5050053;28;20364;-95
2023/10/17 09:18:08;;;;;;;13.32;9.90;;;10.20;99.90;;;;;;5058206;28;20356;-95
2023/10/17 09:20:52;;;;;;;;;;;;;;;;;;;;;
2023/10/17 09:23:41;;;;;;;16.38;9.25;;;10.90;99.90;;;;;;5057259;28;20022;-94
2023/10/17 09:26:11;;;;;;;11.13;8.90;;;10.60;99.90;;;;;;5070366;28;20033;-94
2023/10/17 09:28:39;;;;;;;10.38;8.98;;;10.60;99.90;;;;;;5066648;28;20029;-94
2023/10/17 09:31:17;;;;;;;14.43;8.20;;;10.60;99.90;;;;;;5064256;28;20060;-94
2023/10/17 09:33:54;;;;;;;14.30;7.97;;;10.90;99.90;;;;;;5061483;28;20545;-94
2023/10/17 09:36:25;;;;;;;14.25;7.57;;;11.00;99.90;;;;;;5047982;28;20017;-94
2023/10/17 09:38:59;;;;;;;17.08;8.13;;;11.30;99.90;;;;;;5060147;28;20025;-95
2023/10/17 09:41:35;;;;;;;8.48;7.38;;;11.10;99.90;;;;;;5061336;28;20500;-92
2023/10/17 09:44:04;;;;;;;12.27;7.70;;;11.00;99.90;;;;;;5063337;28;20481;-96
2023/10/17 09:46:43;;;;;;;;;;;;;;;;;;;;;
2023/10/17 09:49:59;;;;;;;9.63;6.32;;;11.70;99.90;;;;;;4996391;28;20134;-94
2023/10/17 09:52:33;;;;;;;10.82;6.25;;;10.70;99.90;;;;;;4976752;28;20030;-93
2023/10/17 09:58:34;;;;;;;7.18;5.32;;;10.90;99.90;;;;;;4959045;28;20050;-94
2023/10/17 10:01:05;;;;;;;7.90;5.43;;;11.10;99.90;;;;;;4995583;28;20031;-93
2023/10/17 10:03:40;;;;;;;8.98;5.90;;;10.80;99.90;;;;;;5018571;28;20416;-93
2023/10/17 10:06:34;;;;;;;10.38;5.05;;;11.50;99.90;;;;;;5056907;28;20056;-95
2023/10/17 10:09:26;;;;;;;8.63;5.40;;;11.20;99.90;;;;;;5052395;28;20048;-93
2023/10/17 10:11:53;;;;;;;7.97;5.50;;;11.20;99.90;;;;;;5072213;28;20020;-94
2023/10/17 10:14:23;;;;;;;10.27;5.32;;;11.20;99.90;;;;;;5067231;28;20032;-86
2023/10/17 10:16:50;;;;;;;10.98;5.65;;;12.20;99.90;;;;;;5049336;28;20090;-84
2023/10/17 10:19:53;;;;;;;9.00;5.50;;;11.30;99.90;;;;;;5073068;28;20035;-94
2023/10/17 10:22:18;;;;;;;8.50;5.03;;;11.30;99.90;;;;;;5062134;28;20017;-92
2023/10/17 10:24:46;;;;;;;7.03;5.10;;;11.40;99.90;;;;;;5057389;28;20067;-88
2023/10/17 10:27:24;;;;;;;11.10;5.75;;;11.40;99.90;;;;;;5054522;28;20477;-91
2023/10/17 10:29:53;;;;;;;4.90;4.22;;;11.70;99.90;;;;;;5060396;28;20029;-89
2023/10/17 10:32:24;;;;;;;8.55;5.22;;;12.20;99.90;;;;;;5057843;28;20039;-89
2023/10/17 10:34:51;;;;;;;12.23;4.80;;;11.30;99.90;;;;;;5055297;28;20075;-92
2023/10/17 10:37:17;;;;;;;6.10;4.38;;;11.50;99.90;;;;;;5054780;28;20036;-93
2023/10/17 10:40:16;;;;;;;8.75;4.55;;;11.50;99.90;;;;;;5057622;28;20118;-91
2023/10/17 10:42:44;;;;;;;8.88;5.45;;;11.60;99.90;;;;;;5047665;28;20077;-92
2023/10/17 10:45:36;;;;;;;5.95;4.65;;;11.60;99.90;;;;;;5049889;28;20162;-92
2023/10/17 10:48:21;;;;;;;8.82;4.97;;;11.70;99.90;;;;;;5055332;28;20539;-91
2023/10/17 10:50:57;;;;;;;7.97;4.78;;;11.70;99.90;;;;;;5055192;28;20028;-91
2023/10/17 10:53:28;;;;;;;6.07;4.10;;;11.70;99.90;;;;;;5036186;28;20029;-92
2023/10/17 10:55:55;;;;;;;5.30;3.75;;;11.90;99.90;;;;;;5041551;28;20104;-91
2023/10/17 10:58:22;;;;;;;7.72;3.35;;;11.80;99.90;;;;;;5055167;28;20052;-91
2023/10/17 11:00:48;;;;;;;5.25;3.92;;;11.80;99.90;;;;;;5063738;22;20056;-90
2023/10/17 11:03:18;;;;;;;5.20;3.58;;;11.90;99.90;;;;;;5058784;28;20104;-93
2023/10/17 11:06:02;;;;;;;8.27;4.20;;;11.90;99.90;;;;;;5045355;28;20045;-91
2023/10/17 11:08:43;;;;;;;6.18;3.90;;;12.10;99.90;;;;;;5055699;28;20511;-90
2023/10/17 11:11:10;;;;;;;6.65;3.63;;;11.90;99.90;;;;;;5071015;28;20029;-91
2023/10/17 11:13:49;;;;;;;7.97;4.43;;;11.90;99.90;;;;;;5066640;28;20124;-90
2023/10/17 11:16:21;;;;;;;7.22;4.05;;;12.00;99.90;;;;;;5058887;28;20020;-92
2023/10/17 11:18:47;;;;;;;5.28;4.10;;;12.00;99.90;;;;;;5055191;28;20044;-92
2023/10/17 11:21:16;;;;;;;6.65;4.57;;;12.00;99.90;;;;;;5060959;28;20021;-91
2023/10/17 11:23:46;;;;;;;7.18;5.00;;;12.10;99.90;;;;;;5064894;28;20089;-92
2023/10/17 11:26:13;;;;;;;5.47;4.35;;;11.90;99.90;;;;;;5068139;28;20027;-92
2023/10/17 11:28:42;;;;;;;8.43;4.55;;;12.70;99.90;;;;;;5070440;28;20100;-92
2023/10/17 11:31:13;;;;;;;4.72;3.78;;;12.10;99.90;;;;;;5068715;28;20033;-92
2023/10/17 11:33:45;;;;;;;5.07;4.43;;;12.40;99.90;;;;;;5060589;28;20369;-91
2023/10/17 11:36:16;;;;;;;3.85;3.40;;;12.40;99.90;;;;;;5058063;28;20492;-93
2023/10/17 11:38:43;;;;;;;7.40;4.45;;;12.20;99.90;;;;;;5057422;28;20033;-94
2023/10/17 11:41:09;;;;;;;4.72;4.20;;;12.20;99.90;;;;;;5057931;28;20428;-93
2023/10/17 11:43:51;;;;;;;4.90;4.40;;;12.30;99.90;;;;;;5056827;28;20064;-93
2023/10/17 11:46:35;;;;;;;5.68;3.90;;;12.30;99.90;;;;;;5054385;28;20075;-93
2023/10/17 11:49:33;;;;;;;14.63;4.18;;;12.30;99.90;;;;;;5053878;28;20036;-93
2023/10/17 11:52:09;;;;;;;5.25;3.90;;;12.40;99.90;;;;;;5049681;28;20021;-93
2023/10/17 11:54:54;;;;;;;5.60;3.60;;;12.50;99.90;;;;;;5034755;28;20033;-92
2023/10/17 11:57:25;;;;;;;6.82;3.80;;;12.50;99.90;;;;;;5048329;28;20031;-92
2023/10/17 12:02:47;;;;;;;5.43;3.75;;;12.50;99.90;;;;;;5054013;28;20481;-92
2023/10/17 12:05:21;;;;;;;4.40;3.72;;;12.60;99.90;;;;;;5062667;28;20013;-91
2023/10/17 12:07:49;;;;;;;5.40;4.80;;;12.60;99.90;;;;;;5065532;28;20507;-92
2023/10/17 12:10:16;;;;;;;4.25;3.58;;;12.60;99.90;;;;;;5058035;28;20025;-92
2023/10/17 12:12:41;;;;;;;8.57;4.75;;;12.70;99.90;;;;;;5056871;28;20033;-92
2023/10/17 12:15:13;;;;;;;6.38;4.30;;;12.70;99.90;;;;;;5055682;28;20040;-92
2023/10/17 12:17:38;;;;;;;5.22;4.15;;;12.70;99.90;;;;;;5054529;28;20021;-92
2023/10/17 12:20:13;;;;;;;6.00;4.03;;;12.70;99.90;;;;;;5054664;28;20051;-92
2023/10/17 12:22:42;;;;;;;5.00;4.10;;;12.80;99.90;;;;;;5054348;28;20025;-92
2023/10/17 12:25:16;;;;;;;4.30;3.85;;;12.80;99.90;;;;;;5067847;28;20013;-91
2023/10/17 12:27:41;;;;;;;8.38;4.18;;;12.80;99.90;;;;;;5078579;28;20036;-92
2023/10/17 12:30:11;;;;;;;6.32;4.20;;;12.80;99.90;;;;;;5077401;28;20021;-93
2023/10/17 12:32:36;;;;;;;4.95;4.13;;;12.90;99.90;;;;;;5062466;28;20029;-93
2023/10/17 12:35:05;;;;;;;7.72;5.28;;;13.00;99.90;;;;;;5058464;28;20484;-92
2023/10/17 12:37:43;;;;;;;5.95;5.00;;;13.00;99.90;;;;;;5058490;28;20488;-92
2023/10/17 12:40:18;;;;;;;7.00;4.43;;;13.00;99.90;;;;;;5058125;28;20060;-92
2023/10/17 12:42:44;;;;;;;6.10;4.25;;;13.00;99.90;;;;;;5057936;28;20032;-91
2023/10/17 12:45:11;;;;;;;11.82;4.68;;;13.00;99.90;;;;;;5058420;28;20021;-92
2023/10/17 12:47:38;;;;;;;4.57;4.18;;;13.00;99.90;;;;;;5058723;28;20389;-91
2023/10/17 12:50:04;;;;;;;8.30;5.25;;;13.00;99.90;;;;;;5058237;28;20035;-93
2023/10/17 12:52:30;;;;;;;7.05;5.10;;;13.10;99.90;;;;;;5058206;28;20035;-92
2023/10/17 12:54:55;;;;;;;6.63;5.00;;;13.10;99.90;;;;;;5057791;28;20113;-91
2023/10/17 12:57:22;;;;;;;5.60;5.10;;;13.10;99.90;;;;;;5062980;28;20025;-90
2023/10/17 12:59:48;;;;;;;8.00;5.47;;;13.10;99.90;;;;;;5077428;28;20041;-92
2023/10/17 13:02:13;;;;;;;6.93;4.60;;;13.10;99.90;;;;;;5060102;28;20028;-90
2023/10/17 13:04:40;;;;;;;6.60;4.93;;;13.20;99.90;;;;;;5057497;28;20025;-90
2023/10/17 13:07:06;;;;;;;5.60;4.90;;;13.20;99.90;;;;;;5058484;28;20506;-93
2023/10/17 13:09:33;;;;;;;6.95;5.05;;;13.20;99.90;;;;;;5047341;28;20092;-91
2023/10/17 13:11:59;;;;;;;7.82;5.10;;;13.20;99.90;;;;;;5057792;28;20044;-92
2023/10/17 13:14:25;;;;;;;7.47;5.00;;;13.20;99.90;;;;;;5057806;28;20086;-92
2023/10/17 13:16:50;;;;;;;7.00;4.95;;;13.20;99.90;;;;;;5057866;28;20021;-91
2023/10/17 13:19:16;;;;;;;8.13;4.90;;;13.30;99.90;;;;;;5057083;28;20025;-89
2023/10/17 13:21:44;;;;;;;7.28;5.18;;;13.20;99.90;;;;;;5056605;28;20048;-91
2023/10/17 13:24:10;;;;;;;8.02;5.07;;;13.20;99.90;;;;;;5057493;28;20052;-91
2023/10/17 13:26:37;;;;;;;7.65;5.20;;;14.10;99.90;;;;;;5056808;28;20527;-92
2023/10/17 13:29:04;;;;;;;6.70;4.75;;;13.20;99.90;;;;;;5056724;28;20120;-91
2023/10/17 13:31:30;;;;;;;7.43;4.88;;;13.30;99.90;;;;;;5056976;28;20129;-91
2023/10/17 13:33:56;;;;;;;7.10;5.63;;;13.30;99.90;;;;;;5057619;28;20032;-90
2023/10/17 13:36:22;;;;;;;7.55;4.85;;;13.30;99.90;;;;;;5058496;28;20350;-93
2023/10/17 13:38:48;;;;;;;6.60;4.97;;;13.40;99.90;;;;;;5057964;28;20473;-91
2023/10/17 13:41:17;;;;;;;8.35;4.80;;;13.40;99.90;;;;;;5059508;28;20438;-91
2023/10/17 13:43:44;;;;;;;14.05;5.85;;;13.70;99.90;;;;;;5066399;28;20049;-91
2023/10/17 13:46:13;;;;;;;9.68;5.38;;;13.50;99.90;;;;;;5060806;28;20025;-92
2023/10/17 13:48:50;;;;;;;8.70;5.13;;;13.50;99.90;;;;;;5056953;28;20128;-91
2023/10/17 13:51:18;;;;;;;7.70;5.40;;;13.50;99.90;;;;;;5056834;28;20072;-92
2023/10/17 13:53:45;;;;;;;6.30;4.65;;;13.60;99.90;;;;;;5057075;28;20434;-90
2023/10/17 13:56:14;;;;;;;4.65;4.22;;;13.60;99.90;;;;;;5057375;28;20021;-90
2023/10/17 13:58:41;;;;;;;5.13;4.63;;;13.70;99.90;;;;;;5055438;28;20373;-90
2023/10/17 14:03:54;;;;;;;6.60;4.70;;;13.70;99.90;;;;;;5055942;28;20968;-93
2023/10/17 14:06:21;;;;;;;7.55;4.72;;;13.70;99.90;;;;;;5055674;28;20017;-92
2023/10/17 14:08:46;;;;;;;7.05;4.55;;;13.70;99.90;;;;;;5057682;28;20037;-89
2023/10/17 14:11:17;;;;;;;7.78;4.13;;;13.70;99.90;;;;;;5056311;28;20021;-92
2023/10/17 14:13:47;;;;;;;7.80;4.70;;;13.90;99.90;;;;;;5056229;28;20029;-91
2023/10/17 14:16:13;;;;;;;8.75;4.20;;;13.80;99.90;;;;;;5055772;28;20037;-91
2023/10/17 14:18:46;;;;;;;4.93;4.30;;;14.40;99.90;;;;;;5056564;28;20021;-93
2023/10/17 14:23:57;;;;;;;5.90;3.85;;;13.90;99.90;;;;;;5054456;28;20075;-87
2023/10/17 14:26:29;;;;;;;4.93;4.05;;;13.90;99.90;;;;;;5053966;28;20087;-88
2023/10/17 14:29:03;;;;;;;5.13;4.57;;;14.00;99.90;;;;;;5050521;28;20033;-89
2023/10/17 14:31:30;;;;;;;5.25;3.65;;;14.00;99.90;;;;;;5054618;28;20021;-91
2023/10/17 14:34:00;;;;;;;4.55;3.40;;;14.00;99.90;;;;;;5054481;28;20142;-88
2023/10/17 14:36:28;;;;;;;4.47;4.07;;;13.90;99.90;;;;;;5055029;28;20052;-91
2023/10/17 14:38:55;;;;;;;11.45;4.22;;;13.90;99.90;;;;;;5057486;28;20369;-94
2023/10/17 14:41:23;;;;;;;7.43;4.30;;;14.10;99.90;;;;;;5056748;28;20025;-91
2023/10/17 14:43:51;;;;;;;4.85;4.32;;;13.80;99.90;;;;;;5050083;28;20063;-90
2023/10/17 14:46:20;;;;;;;4.97;4.40;;;13.80;99.90;;;;;;5064757;28;20021;-91
2023/10/17 14:48:46;;;;;;;5.32;3.65;;;13.90;99.90;;;;;;5058876;28;20064;-89
2023/10/17 14:51:12;;;;;;;4.93;4.05;;;14.20;99.90;;;;;;5056936;28;20469;-88
2023/10/17 14:53:46;;;;;;;4.43;3.72;;;13.90;99.90;;;;;;5053983;28;20075;-87
2023/10/17 14:56:14;;;;;;;5.82;3.30;;;14.10;99.90;;;;;;5053873;28;20108;-88
2023/10/17 14:58:51;;;;;;;3.63;3.22;;;14.10;99.90;;;;;;5055073;28;20099;-89
2023/10/17 15:01:16;;;;;;;5.53;3.28;;;13.90;99.90;;;;;;5054311;28;20049;-89
2023/10/17 15:03:45;;;;;;;8.48;3.28;;;13.90;99.90;;;;;;5055039;28;20156;-89
2023/10/17 15:06:10;;;;;;;9.10;3.60;;;13.90;99.90;;;;;;5067222;28;20017;-89
2023/10/17 15:08:37;;;;;;;3.15;2.85;;;13.90;99.90;;;;;;5064225;28;20028;-92
2023/10/17 15:11:06;;;;;;;4.15;3.03;;;13.90;99.90;;;;;;5056760;28;20376;-94
2023/10/17 15:13:33;;;;;;;7.10;2.80;;;13.80;99.90;;;;;;5054378;28;20491;-89
2023/10/17 15:15:59;;;;;;;3.47;3.20;;;13.80;99.90;;;;;;5054551;28;20493;-92
2023/10/17 15:18:25;;;;;;;4.78;2.78;;;13.80;99.90;;;;;;5055479;28;20025;-92
2023/10/17 15:20:51;;;;;;;6.78;3.08;;;13.80;99.90;;;;;;5054071;28;20025;-92
2023/10/17 15:23:16;;;;;;;3.55;2.70;;;13.70;99.90;;;;;;5057538;28;20033;-92
2023/10/17 15:25:42;;;;;;;3.17;2.88;;;13.70;99.90;;;;;;5068917;28;20104;-93
2023/10/17 15:28:07;;;;;;;6.65;2.88;;;13.80;99.90;;;;;;5056338;28;20432;-91
2023/10/17 15:30:34;;;;;;;4.85;2.70;;;13.60;99.90;;;;;;5067275;28;20016;-91
2023/10/17 15:33:02;;;;;;;3.42;2.70;;;13.70;99.90;;;;;;5073595;28;20020;-90